Time;durP1;ratioP1;P1;durP2;ratioP2;P2;SDS_P1;SDS_P2;PMS_P1;PMS_P2;Temp;Humidity;BMP_temperature;BMP_pressure;BME280_temperature;BME280_humidity;BME280_pressure;Samples;Min_cycle;Max_cycle;Signal;HPM_P1;HPM_P2
2022/07/31 00:01:48;;;;;;;8.57;4.00;;;;;;;20.20;55.12;99599.72;5074034;28;20383;-56
2022/07/31 00:04:13;;;;;;;8.43;4.32;;;;;;;20.15;54.77;99597.06;5073259;28;20062;-56
2022/07/31 00:06:40;;;;;;;16.75;5.00;;;;;;;20.10;55.05;99599.88;5074606;28;20024;-56
2022/07/31 00:09:05;;;;;;;6.65;4.20;;;;;;;20.03;55.23;99595.59;5073994;28;20032;-56
2022/07/31 00:11:30;;;;;;;8.70;4.20;;;;;;;20.01;55.00;99597.00;5072858;28;20078;-56
2022/07/31 00:13:56;;;;;;;7.35;4.35;;;;;;;19.89;56.14;99594.72;5077781;28;20482;-55
2022/07/31 00:16:21;;;;;;;8.48;4.13;;;;;;;19.80;56.27;99591.06;5073895;28;20028;-57
2022/07/31 00:18:47;;;;;;;9.07;4.38;;;;;;;19.75;56.63;99589.25;5071817;28;20476;-56
2022/07/31 00:21:12;;;;;;;7.38;4.70;;;;;;;19.71;56.24;99582.75;5077936;28;20379;-56
2022/07/31 00:23:39;;;;;;;11.82;4.50;;;;;;;19.70;56.72;99585.78;5073695;28;20036;-56
2022/07/31 00:26:05;;;;;;;7.95;4.55;;;;;;;19.64;56.75;99581.47;5073468;28;20024;-55
2022/07/31 00:28:30;;;;;;;15.00;4.68;;;;;;;19.61;57.33;99577.44;5073636;28;20029;-56
2022/07/31 00:31:23;;;;;;;15.30;4.63;;;;;;;19.50;57.38;99582.22;5073773;28;20493;-56
2022/07/31 00:33:48;;;;;;;8.57;4.30;;;;;;;19.40;57.71;99574.22;5062947;28;20036;-57
2022/07/31 00:36:14;;;;;;;8.57;4.20;;;;;;;19.39;57.64;99578.00;5072242;28;20024;-55
2022/07/31 00:38:39;;;;;;;8.07;4.47;;;;;;;19.28;58.00;99568.38;5073530;28;20025;-55
2022/07/31 00:41:05;;;;;;;17.58;6.15;;;;;;;19.20;58.27;99572.56;5073610;28;20024;-56
2022/07/31 00:43:30;;;;;;;12.05;4.47;;;;;;;19.13;58.16;99569.38;5072073;28;20382;-55
2022/07/31 00:45:56;;;;;;;8.43;4.55;;;;;;;19.10;58.11;99564.53;5073400;28;20028;-55
2022/07/31 00:48:22;;;;;;;25.40;7.28;;;;;;;19.00;58.51;99570.91;5072717;28;20028;-55
2022/07/31 00:50:47;;;;;;;11.60;4.85;;;;;;;18.98;58.50;99569.56;5072919;28;20509;-56
2022/07/31 00:53:13;;;;;;;11.68;4.90;;;;;;;18.91;59.20;99567.19;5073036;28;20040;-56
2022/07/31 00:55:38;;;;;;;9.43;4.80;;;;;;;18.90;59.06;99562.88;5071996;28;20029;-56
2022/07/31 00:58:04;;;;;;;7.47;4.00;;;;;;;18.77;58.88;99569.81;5073086;28;20033;-55
2022/07/31 01:00:29;;;;;;;12.90;4.90;;;;;;;18.63;59.68;99561.50;5072902;28;20032;-53
2022/07/31 01:02:55;;;;;;;6.80;4.45;;;;;;;18.54;59.74;99571.34;5081277;28;20063;-56
2022/07/31 01:05:20;;;;;;;9.80;4.53;;;;;;;18.48;60.35;99569.81;5072721;28;20040;-55
2022/07/31 01:07:47;;;;;;;14.63;5.10;;;;;;;18.47;60.28;99562.75;5072550;28;20017;-57
2022/07/31 01:10:15;;;;;;;10.15;4.55;;;;;;;18.42;60.42;99565.50;5072748;28;20182;-56
2022/07/31 01:12:53;;;;;;;11.48;4.60;;;;;;;18.53;59.76;99553.47;5071514;28;20025;-53
2022/07/31 01:15:18;;;;;;;9.57;4.70;;;;;;;18.54;59.89;99557.78;5065480;28;20025;-56
2022/07/31 01:17:46;;;;;;;13.25;4.82;;;;;;;18.57;59.84;99553.69;5070724;28;20029;-56
2022/07/31 01:20:12;;;;;;;7.63;4.35;;;;;;;18.49;59.97;99546.97;5054967;28;20028;-56
2022/07/31 01:23:17;;;;;;;13.02;4.53;;;;;;;18.52;59.42;99543.69;5072431;28;20059;-55
2022/07/31 01:25:57;;;;;;;12.20;4.75;;;;;;;18.43;60.20;99553.56;5071357;28;20036;-56
2022/07/31 01:28:44;;;;;;;8.77;4.82;;;;;;;18.20;60.67;99545.09;5072104;28;20028;-56
2022/07/31 01:31:15;;;;;;;12.70;4.50;;;;;;;17.91;61.66;99546.97;5076525;28;20304;-56
2022/07/31 01:33:52;;;;;;;9.65;4.40;;;;;;;18.01;61.59;99547.69;5070714;28;20375;-55
2022/07/31 01:36:22;;;;;;;10.63;4.70;;;;;;;18.11;61.36;99552.22;5055174;28;20043;-57
2022/07/31 01:38:50;;;;;;;10.57;4.78;;;;;;;18.09;61.28;99554.41;5054578;28;20497;-56
2022/07/31 01:41:16;;;;;;;9.73;4.93;;;;;;;18.09;61.66;99548.97;5072334;28;20123;-56
2022/07/31 01:43:43;;;;;;;10.45;5.53;;;;;;;18.13;61.53;99550.03;5071034;28;20021;-56
2022/07/31 01:46:14;;;;;;;10.65;4.82;;;;;;;18.16;61.74;99544.03;5070794;28;20432;-57
2022/07/31 01:48:39;;;;;;;8.85;4.85;;;;;;;18.22;61.95;99542.91;5074109;28;20058;-56
2022/07/31 01:51:05;;;;;;;9.48;4.57;;;;;;;18.18;61.87;99541.84;5070637;28;20036;-56
2022/07/31 01:53:30;;;;;;;11.00;5.00;;;;;;;18.17;61.78;99542.97;5061035;28;20039;-57
2022/07/31 01:55:57;;;;;;;13.48;4.90;;;;;;;18.15;62.29;99537.00;5072308;28;20119;-57
2022/07/31 01:58:23;;;;;;;9.10;4.65;;;;;;;18.21;62.24;99529.63;5070426;28;20098;-57
2022/07/31 02:00:48;;;;;;;8.60;4.70;;;;;;;18.15;62.21;99533.50;5059343;28;20027;-56
2022/07/31 02:03:14;;;;;;;7.65;4.65;;;;;;;18.06;62.63;99525.16;5071334;28;20054;-56
2022/07/31 02:05:40;;;;;;;12.57;4.85;;;;;;;18.05;63.05;99539.81;5059872;28;20024;-56
2022/07/31 02:08:05;;;;;;;7.82;4.25;;;;;;;18.07;62.69;99533.00;5070771;28;20329;-55
2022/07/31 02:10:30;;;;;;;11.75;4.63;;;;;;;18.07;62.98;99532.19;5070683;28;20048;-57
2022/07/31 02:12:56;;;;;;;9.02;4.38;;;;;;;18.04;63.67;99535.47;5072637;28;20471;-57
2022/07/31 02:15:21;;;;;;;11.60;4.63;;;;;;;17.97;63.38;99535.81;5053999;28;20060;-55
2022/07/31 02:17:47;;;;;;;6.03;4.25;;;;;;;17.89;64.14;99529.06;5053618;28;20020;-56
2022/07/31 02:20:12;;;;;;;10.45;5.10;;;;;;;17.94;63.98;99530.13;5053917;28;20033;-56
2022/07/31 02:22:38;;;;;;;12.30;5.25;;;;;;;17.81;63.75;99523.44;5070602;28;20029;-57
2022/07/31 02:25:05;;;;;;;7.68;4.97;;;;;;;17.73;64.23;99530.25;5071896;28;20046;-57
2022/07/31 02:27:30;;;;;;;9.68;4.93;;;;;;;17.74;64.40;99533.78;5076049;28;20032;-57
2022/07/31 02:29:56;;;;;;;9.20;5.00;;;;;;;17.80;64.24;99536.19;5070451;28;20054;-56
2022/07/31 02:32:21;;;;;;;13.88;5.13;;;;;;;17.94;63.90;99530.13;5070927;28;20036;-57
2022/07/31 02:34:47;;;;;;;12.40;5.10;;;;;;;17.95;63.79;99531.75;5055098;28;20035;-57
2022/07/31 02:37:12;;;;;;;11.00;4.65;;;;;;;18.06;63.32;99525.16;5070578;28;20429;-56
2022/07/31 02:39:38;;;;;;;13.00;5.05;;;;;;;17.96;64.90;99534.16;5069170;28;20632;-57
2022/07/31 02:42:03;;;;;;;7.43;4.80;;;;;;;17.91;64.04;99536.13;5053985;28;20033;-57
2022/07/31 02:44:30;;;;;;;13.18;5.00;;;;;;;17.95;64.24;99542.59;5070163;28;20296;-56
2022/07/31 02:46:56;;;;;;;11.10;5.15;;;;;;;17.92;64.41;99538.53;5071565;28;20509;-56
2022/07/31 02:49:22;;;;;;;8.30;5.53;;;;;;;17.91;64.29;99526.09;5069513;28;20502;-56
2022/07/31 02:51:48;;;;;;;9.38;5.65;;;;;;;17.86;64.75;99532.34;5080956;28;20518;-56
2022/07/31 02:54:13;;;;;;;14.60;5.63;;;;;;;17.83;64.64;99524.78;5071107;28;20120;-57
2022/07/31 02:56:38;;;;;;;11.45;5.00;;;;;;;17.97;64.48;99518.69;5071985;28;20032;-56
2022/07/31 02:59:04;;;;;;;8.23;4.65;;;;;;;18.12;63.62;99521.28;5070244;28;20032;-57
2022/07/31 03:01:33;;;;;;;11.77;4.80;;;;;;;18.13;63.75;99514.78;5070237;28;20374;-57
2022/07/31 03:03:59;;;;;;;11.30;5.60;;;;;;;18.11;63.97;99519.69;5084043;28;20041;-56
2022/07/31 03:06:24;;;;;;;17.02;5.72;;;;;;;17.97;63.90;99514.13;5071099;28;20090;-56
2022/07/31 03:08:50;;;;;;;12.02;5.25;;;;;;;18.03;64.29;99518.38;5070588;28;20069;-57
2022/07/31 03:11:16;;;;;;;11.35;5.25;;;;;;;18.10;63.61;99512.66;5071413;28;20037;-57
2022/07/31 03:13:42;;;;;;;12.48;5.40;;;;;;;18.14;63.65;99515.59;5073543;28;20045;-56
2022/07/31 03:16:08;;;;;;;14.57;5.10;;;;;;;18.11;64.26;99514.25;5070196;28;20082;-56
2022/07/31 03:18:33;;;;;;;11.70;4.97;;;;;;;18.08;64.68;99520.25;5070654;28;20032;-56
2022/07/31 03:20:59;;;;;;;13.32;5.20;;;;;;;18.09;64.79;99511.81;5056728;28;20364;-57
2022/07/31 03:23:25;;;;;;;12.55;5.35;;;;;;;17.97;65.56;99507.84;5073771;28;20390;-57
2022/07/31 03:25:50;;;;;;;12.80;5.22;;;;;;;18.05;64.83;99513.50;5073681;28;20028;-57
2022/07/31 03:28:19;;;;;;;8.57;5.15;;;;;;;18.00;65.20;99502.69;5073834;28;20471;-56
2022/07/31 03:30:46;;;;;;;10.98;5.50;;;;;;;17.87;65.35;99508.75;5074622;28;20445;-56
2022/07/31 03:33:11;;;;;;;9.93;5.43;;;;;;;17.96;64.36;99503.53;5072832;28;20028;-57
2022/07/31 03:35:37;;;;;;;9.70;5.30;;;;;;;18.00;64.65;99512.75;5074830;28;20482;-57
2022/07/31 03:38:04;;;;;;;11.13;4.97;;;;;;;18.09;64.73;99505.59;5073418;28;20021;-57
2022/07/31 03:40:30;;;;;;;10.52;5.70;;;;;;;18.15;64.18;99504.47;5074585;28;20032;-57
2022/07/31 03:42:55;;;;;;;9.63;5.10;;;;;;;18.05;64.52;99497.22;5073519;28;20035;-57
2022/07/31 03:45:21;;;;;;;14.15;5.32;;;;;;;18.04;64.04;99497.50;5073253;28;20020;-57
2022/07/31 03:47:46;;;;;;;11.13;5.57;;;;;;;18.03;64.02;99501.31;5056141;28;20483;-57
2022/07/31 03:50:12;;;;;;;12.15;5.38;;;;;;;18.04;64.84;99500.22;5074323;28;20375;-57
2022/07/31 03:52:37;;;;;;;9.00;5.70;;;;;;;18.04;65.37;99503.72;5074067;28;20321;-57
2022/07/31 03:55:03;;;;;;;12.15;5.65;;;;;;;17.93;65.84;99498.69;5073176;28;20020;-56
2022/07/31 03:57:28;;;;;;;11.13;6.05;;;;;;;17.89;65.63;99501.94;5074249;28;20471;-57
2022/07/31 03:59:56;;;;;;;10.07;5.60;;;;;;;17.87;65.42;99501.44;5056044;28;20024;-58
2022/07/31 04:02:24;;;;;;;11.88;5.65;;;;;;;17.96;65.49;99503.53;5057331;28;20078;-56
2022/07/31 04:04:50;;;;;;;14.07;5.95;;;;;;;18.05;66.01;99499.13;5080420;28;20041;-56
2022/07/31 04:07:16;;;;;;;8.98;5.38;;;;;;;17.99;65.53;99497.53;5074193;28;20050;-57
2022/07/31 04:09:41;;;;;;;13.35;5.80;;;;;;;18.07;64.63;99505.88;5073803;28;20024;-57
2022/07/31 04:12:07;;;;;;;10.25;5.47;;;;;;;18.53;63.68;99507.31;5072462;28;20025;-56
2022/07/31 04:14:32;;;;;;;10.07;6.55;;;;;;;18.75;62.33;99495.94;5073898;28;20039;-57
2022/07/31 04:16:57;;;;;;;13.35;5.55;;;;;;;18.82;62.09;99507.31;5073799;28;20617;-57
2022/07/31 04:19:23;;;;;;;10.27;5.47;;;;;;;18.86;62.42;99508.31;5073272;28;20031;-57
2022/07/31 04:21:49;;;;;;;15.63;5.47;;;;;;;18.75;62.97;99512.25;5072420;28;20039;-58
2022/07/31 04:24:17;;;;;;;11.80;5.47;;;;;;;18.57;63.54;99511.09;5073467;28;20028;-57
2022/07/31 04:26:47;;;;;;;9.52;5.90;;;;;;;18.50;63.64;99505.19;5097445;28;20040;-55
2022/07/31 04:29:12;;;;;;;12.10;5.30;;;;;;;18.46;64.20;99504.13;5072448;28;20501;-56
2022/07/31 04:31:38;;;;;;;12.00;5.40;;;;;;;18.40;63.38;99499.88;5073329;28;20037;-56
2022/07/31 04:34:03;;;;;;;15.18;5.72;;;;;;;18.44;63.65;99500.91;5072965;28;20443;-57
2022/07/31 04:36:29;;;;;;;10.82;5.80;;;;;;;18.50;64.45;99510.63;5073357;28;20085;-56
2022/07/31 04:38:55;;;;;;;18.00;5.95;;;;;;;18.55;63.91;99502.44;5073141;28;20046;-56
2022/07/31 04:41:20;;;;;;;13.23;5.68;;;;;;;18.62;63.51;99500.19;5073854;28;20028;-56
2022/07/31 04:43:46;;;;;;;10.48;5.95;;;;;;;18.60;63.63;99498.84;5080105;28;20471;-57
2022/07/31 04:46:11;;;;;;;13.80;5.63;;;;;;;18.63;63.67;99501.78;5086723;28;20024;-57
2022/07/31 04:48:37;;;;;;;22.10;6.63;;;;;;;18.52;64.28;99498.38;5072866;28;20364;-57
2022/07/31 04:51:02;;;;;;;14.68;5.70;;;;;;;18.60;64.25;99498.84;5073008;28;20032;-57
2022/07/31 04:53:27;;;;;;;9.10;5.80;;;;;;;18.73;63.47;99498.94;5072766;28;20021;-57
2022/07/31 04:58:37;;;;;;;15.63;5.43;;;;;;;18.73;63.30;99500.84;5073123;28;20044;-57
2022/07/31 05:01:05;;;;;;;11.90;5.78;;;;;;;18.60;64.14;99494.22;5072853;28;20463;-57
2022/07/31 05:03:30;;;;;;;8.38;5.60;;;;;;;18.62;64.95;99492.03;5072539;28;20048;-56
2022/07/31 05:05:56;;;;;;;11.27;5.30;;;;;;;18.70;64.78;99496.00;5073050;28;20463;-57
2022/07/31 05:08:22;;;;;;;8.98;5.82;;;;;;;18.74;64.41;99497.84;5072835;28;20383;-57
2022/07/31 05:13:55;;;;;;;13.82;6.13;;;;;;;18.61;65.19;99498.53;5067999;28;20024;-56
2022/07/31 05:16:21;;;;;;;24.75;6.65;;;;;;;18.64;65.21;99497.97;5072810;28;20570;-57
2022/07/31 05:18:47;;;;;;;16.92;7.13;;;;;;;18.46;66.09;99493.28;5074577;28;20028;-56
2022/07/31 05:21:13;;;;;;;15.10;6.57;;;;;;;18.47;66.41;99500.31;5072590;28;20099;-57
2022/07/31 05:23:39;;;;;;;20.50;5.90;;;;;;;18.44;66.98;99500.91;5072649;28;20031;-58
2022/07/31 05:26:04;;;;;;;13.63;6.25;;;;;;;18.45;66.86;99499.81;5071246;28;20032;-58
2022/07/31 05:28:30;;;;;;;18.58;6.57;;;;;;;18.18;67.68;99497.66;5071294;28;20036;-57
2022/07/31 05:30:56;;;;;;;12.60;6.25;;;;;;;18.37;66.81;99497.72;5054789;28;20032;-58
2022/07/31 05:33:21;;;;;;;10.65;6.15;;;;;;;18.41;67.00;99496.06;5071406;28;20109;-57
2022/07/31 05:35:46;;;;;;;11.85;6.22;;;;;;;18.38;66.55;99504.78;5073082;28;20028;-57
2022/07/31 05:38:12;;;;;;;12.95;6.10;;;;;;;18.40;65.38;99499.88;5072310;28;20044;-55
2022/07/31 05:40:37;;;;;;;11.00;6.07;;;;;;;18.38;64.59;99502.88;5072128;28;20053;-57
2022/07/31 05:43:03;;;;;;;11.32;6.13;;;;;;;18.42;64.29;99497.66;5072269;28;20422;-56
2022/07/31 05:45:28;;;;;;;13.20;6.35;;;;;;;18.63;63.66;99493.63;5072235;28;20033;-57
2022/07/31 05:47:54;;;;;;;8.57;5.90;;;;;;;18.92;62.75;99498.19;5071741;28;20028;-57
2022/07/31 05:50:20;;;;;;;12.25;5.57;;;;;;;18.96;62.46;99493.81;5072339;28;20437;-57
2022/07/31 05:52:48;;;;;;;17.58;6.32;;;;;;;19.09;61.98;99498.50;5071239;28;20103;-56
2022/07/31 05:55:14;;;;;;;8.45;5.22;;;;;;;19.24;62.10;99496.69;5071218;28;20033;-56
2022/07/31 05:57:39;;;;;;;11.02;5.68;;;;;;;19.33;61.39;99497.66;5080688;28;20025;-57
2022/07/31 06:00:06;;;;;;;17.35;5.80;;;;;;;19.49;61.26;99493.59;5058348;28;20440;-58
2022/07/31 06:02:31;;;;;;;11.50;6.00;;;;;;;19.52;61.12;99503.91;5071209;28;20443;-57
2022/07/31 06:04:56;;;;;;;14.20;5.53;;;;;;;19.88;59.89;99506.09;5070473;28;20043;-57
2022/07/31 06:07:22;;;;;;;11.25;5.90;;;;;;;19.97;60.08;99507.03;5071817;28;20051;-59
2022/07/31 06:09:47;;;;;;;15.95;5.90;;;;;;;20.00;60.13;99511.06;5072800;28;20028;-57
2022/07/31 06:12:13;;;;;;;14.32;6.00;;;;;;;20.11;59.62;99511.69;5071690;28;20479;-57
2022/07/31 06:14:38;;;;;;;18.63;6.25;;;;;;;20.12;59.96;99505.13;5072142;28;20094;-57
2022/07/31 06:17:04;;;;;;;9.38;6.05;;;;;;;20.05;60.49;99508.25;5071965;28;20016;-57
2022/07/31 06:19:31;;;;;;;10.32;6.05;;;;;;;20.00;61.05;99508.34;5078921;28;20549;-57
2022/07/31 06:21:58;;;;;;;10.20;5.72;;;;;;;19.91;62.45;99505.50;5073859;28;20035;-57
2022/07/31 06:24:24;;;;;;;12.60;6.50;;;;;;;19.90;62.53;99503.09;5072179;28;20025;-56
2022/07/31 06:26:50;;;;;;;13.50;6.43;;;;;;;20.09;62.40;99503.00;5071742;28;20024;-57
2022/07/31 06:29:15;;;;;;;18.05;6.68;;;;;;;20.67;61.05;99506.06;5074103;28;20087;-57
2022/07/31 06:31:41;;;;;;;12.45;6.05;;;;;;;20.89;60.15;99497.19;5071610;28;20033;-55
2022/07/31 06:34:06;;;;;;;11.38;5.97;;;;;;;21.28;58.55;99498.50;5071635;28;20032;-56
2022/07/31 06:36:32;;;;;;;10.82;6.70;;;;;;;20.80;59.89;99499.00;5071688;28;20682;-57
2022/07/31 06:38:57;;;;;;;15.70;6.68;;;;;;;21.03;59.34;99502.59;5071846;28;20040;-56
2022/07/31 06:44:06;;;;;;;9.82;5.90;;;;;;;21.78;56.33;99505.84;5071471;28;20067;-56
2022/07/31 06:46:32;;;;;;;12.27;6.13;;;;;;;22.08;55.44;99504.25;5070259;28;20024;-55
2022/07/31 06:48:57;;;;;;;14.70;6.28;;;;;;;22.21;55.02;99507.25;5069500;28;20027;-55
2022/07/31 06:51:23;;;;;;;9.15;6.03;;;;;;;22.18;55.10;99508.66;5071541;28;20094;-57
2022/07/31 06:53:48;;;;;;;15.38;5.90;;;;;;;22.47;53.43;99504.66;5073420;28;20035;-56
2022/07/31 06:56:14;;;;;;;9.68;5.75;;;;;;;23.47;52.42;99499.28;5075810;28;20024;-56
2022/07/31 06:58:39;;;;;;;12.32;5.90;;;;;;;24.25;49.73;99509.34;5075291;28;20028;-55
2022/07/31 07:01:04;;;;;;;11.82;5.28;;;;;;;24.21;49.06;99511.13;5075987;28;20032;-57
2022/07/31 07:03:30;;;;;;;16.63;5.32;;;;;;;24.65;47.32;99503.56;5074739;28;20410;-57
2022/07/31 07:05:55;;;;;;;10.60;5.30;;;;;;;24.15;49.07;99496.00;5075336;28;20035;-55
2022/07/31 07:08:21;;;;;;;9.63;5.07;;;;;;;24.11;48.13;99490.38;5074971;28;20020;-54
2022/07/31 07:10:46;;;;;;;14.93;5.90;;;;;;;24.06;48.74;99504.25;5075072;28;20024;-53
2022/07/31 07:13:12;;;;;;;18.23;5.40;;;;;;;24.37;47.87;99496.91;5079248;28;20028;-54
2022/07/31 07:15:37;;;;;;;13.05;5.32;;;;;;;24.40;47.96;99488.81;5075088;28;20028;-54
2022/07/31 07:18:03;;;;;;;12.50;5.13;;;;;;;24.43;48.29;99495.59;5074477;28;20463;-53
2022/07/31 07:20:28;;;;;;;11.48;5.40;;;;;;;24.95;46.69;99495.34;5074686;28;20433;-54
2022/07/31 07:22:53;;;;;;;12.40;5.53;;;;;;;24.41;48.39;99492.38;5074784;28;20429;-56
2022/07/31 07:25:19;;;;;;;18.50;5.88;;;;;;;24.73;47.31;99478.06;5075352;28;20036;-56
2022/07/31 07:27:45;;;;;;;13.25;5.47;;;;;;;24.50;48.06;99488.50;5074755;28;20021;-55
2022/07/31 07:30:11;;;;;;;10.93;5.00;;;;;;;24.52;47.48;99477.22;5074352;28;20050;-56
2022/07/31 07:32:36;;;;;;;11.05;5.22;;;;;;;24.13;48.33;99476.34;5074941;28;20021;-56
2022/07/31 07:35:02;;;;;;;11.60;5.50;;;;;;;24.21;48.77;99482.94;5073129;28;20020;-55
2022/07/31 07:37:28;;;;;;;23.67;5.53;;;;;;;23.95;49.15;99472.84;5073520;28;20390;-57
2022/07/31 07:39:54;;;;;;;11.20;5.47;;;;;;;24.04;48.34;99475.59;5074705;28;20032;-56
2022/07/31 07:42:19;;;;;;;12.85;5.13;;;;;;;24.07;47.99;99469.47;5074331;28;20115;-56
2022/07/31 07:44:45;;;;;;;12.95;5.22;;;;;;;24.08;47.72;99468.31;5074361;28;20025;-56
2022/07/31 07:47:10;;;;;;;13.05;5.65;;;;;;;23.77;49.01;99463.88;5082171;28;20024;-58
2022/07/31 07:49:36;;;;;;;10.55;5.10;;;;;;;24.24;48.29;99471.34;5075681;28;20028;-56
2022/07/31 07:52:02;;;;;;;11.93;5.40;;;;;;;23.95;48.25;99472.06;5074214;28;20029;-56
2022/07/31 07:54:28;;;;;;;12.20;5.53;;;;;;;23.45;48.56;99473.38;5075861;28;20029;-56
2022/07/31 07:56:54;;;;;;;16.45;5.68;;;;;;;23.49;48.84;99474.34;5074371;28;20024;-56
2022/07/31 07:59:19;;;;;;;14.70;5.55;;;;;;;23.54;49.21;99468.72;5077673;28;20020;-55
2022/07/31 08:01:45;;;;;;;10.32;5.22;;;;;;;23.79;48.97;99469.84;5078739;28;20032;-57
2022/07/31 08:04:10;;;;;;;9.75;4.90;;;;;;;24.27;47.22;99476.97;5074911;28;20083;-55
2022/07/31 08:06:35;;;;;;;16.05;6.28;;;;;;;24.24;47.95;99482.28;5074407;28;20024;-54
2022/07/31 08:09:01;;;;;;;10.68;5.45;;;;;;;24.46;47.49;99478.50;5072554;28;20363;-55
2022/07/31 08:11:26;;;;;;;13.52;5.18;;;;;;;23.88;46.25;99478.03;5073837;28;20036;-55
2022/07/31 08:13:52;;;;;;;12.00;5.25;;;;;;;23.19;46.84;99471.44;5078428;28;20029;-55
2022/07/31 08:16:19;;;;;;;11.98;5.93;;;;;;;23.28;47.54;99476.09;5079665;28;20360;-55
2022/07/31 08:18:44;;;;;;;14.68;5.40;;;;;;;23.52;47.25;99470.16;5073199;28;20452;-55
2022/07/31 08:21:10;;;;;;;9.88;5.20;;;;;;;23.98;46.76;99471.41;5073641;28;20032;-55
2022/07/31 08:23:35;;;;;;;14.85;5.38;;;;;;;23.89;46.01;99466.75;5072555;28;20389;-56
2022/07/31 08:26:03;;;;;;;8.30;5.00;;;;;;;23.64;46.06;99470.31;5073687;28;20021;-55
2022/07/31 08:28:28;;;;;;;9.15;5.60;;;;;;;23.87;46.19;99460.81;5073663;28;20070;-57
2022/07/31 08:30:54;;;;;;;12.50;4.95;;;;;;;24.47;45.64;99458.22;5073394;28;20470;-56
2022/07/31 08:33:19;;;;;;;10.82;5.25;;;;;;;24.14;46.28;99456.06;5073147;28;20029;-57
2022/07/31 08:35:45;;;;;;;10.68;5.60;;;;;;;23.86;46.34;99451.00;5073933;28;20028;-56
2022/07/31 08:38:11;;;;;;;14.40;5.03;;;;;;;24.25;46.43;99454.56;5072101;28;20596;-55
2022/07/31 08:40:37;;;;;;;10.80;5.35;;;;;;;24.23;46.37;99459.56;5073333;28;20051;-54
2022/07/31 08:43:03;;;;;;;9.32;5.13;;;;;;;24.16;45.34;99451.03;5073278;28;20040;-56
2022/07/31 08:45:28;;;;;;;12.25;5.40;;;;;;;24.18;45.95;99448.00;5073215;28;20033;-55
2022/07/31 08:47:54;;;;;;;13.10;5.40;;;;;;;23.99;46.11;99453.84;5071544;28;20044;-56
2022/07/31 08:50:19;;;;;;;14.18;5.30;;;;;;;24.25;46.26;99454.56;5073333;28;20509;-57
2022/07/31 08:52:45;;;;;;;12.05;5.70;;;;;;;24.33;46.11;99459.19;5073574;28;20386;-56
2022/07/31 08:55:10;;;;;;;12.70;5.78;;;;;;;24.23;47.62;99465.03;5073163;28;20036;-55
2022/07/31 08:57:36;;;;;;;19.73;6.70;;;;;;;24.13;49.40;99465.41;5071609;28;20074;-55
2022/07/31 09:00:04;;;;;;;12.73;6.05;;;;;;;24.01;50.17;99468.00;5072956;28;20070;-56
2022/07/31 09:02:31;;;;;;;16.08;7.60;;;;;;;23.71;50.83;99459.66;5071528;28;20050;-56
2022/07/31 09:04:56;;;;;;;23.77;7.22;;;;;;;23.99;50.86;99459.31;5072354;28;20387;-54
2022/07/31 09:07:23;;;;;;;18.05;7.45;;;;;;;23.92;50.13;99446.16;5072805;28;20048;-55
2022/07/31 09:09:49;;;;;;;15.52;6.47;;;;;;;23.88;50.71;99445.97;5072514;28;20032;-55
2022/07/31 09:12:14;;;;;;;26.73;7.18;;;;;;;24.31;50.04;99450.53;5072693;28;20028;-56
2022/07/31 09:14:46;;;;;;;18.77;7.07;;;;;;;24.11;50.33;99452.06;5071210;28;20024;-56
2022/07/31 09:17:14;;;;;;;13.38;6.72;;;;;;;24.15;50.07;99454.13;5071992;28;20108;-56
2022/07/31 09:19:41;;;;;;;17.38;6.53;;;;;;;23.22;52.28;99445.41;5072269;28;20115;-55
2022/07/31 09:22:06;;;;;;;22.55;7.75;;;;;;;23.06;53.12;99439.56;5072547;28;20085;-56
2022/07/31 09:24:33;;;;;;;14.50;7.25;;;;;;;23.17;52.99;99440.09;5071142;28;20036;-56
2022/07/31 09:27:07;;;;;;;20.05;6.72;;;;;;;23.42;53.80;99436.53;5072467;28;20024;-57
2022/07/31 09:29:45;;;;;;;18.02;6.57;;;;;;;23.21;53.70;99436.41;5072431;28;20039;-56
2022/07/31 09:32:14;;;;;;;17.08;6.88;;;;;;;23.13;53.45;99428.97;5072573;28;20040;-55
2022/07/31 09:34:40;;;;;;;17.13;6.85;;;;;;;23.21;53.98;99425.47;5070995;28;20493;-56
2022/07/31 09:37:10;;;;;;;28.88;6.85;;;;;;;24.01;52.14;99435.97;5070893;28;20063;-54
2022/07/31 09:39:36;;;;;;;12.43;6.05;;;;;;;23.84;51.62;99430.56;5072168;28;20028;-55
2022/07/31 09:42:02;;;;;;;17.80;6.93;;;;;;;24.11;52.38;99432.88;5075142;28;20028;-54
2022/07/31 09:44:38;;;;;;;16.55;7.30;;;;;;;24.36;50.10;99430.34;5086180;28;20359;-55
2022/07/31 09:47:05;;;;;;;13.07;6.75;;;;;;;24.26;51.19;99437.03;5082869;28;20023;-56
2022/07/31 09:49:31;;;;;;;17.05;6.20;;;;;;;25.01;49.00;99433.72;5070642;28;20061;-56
2022/07/31 09:51:58;;;;;;;15.40;6.78;;;;;;;24.76;48.87;99435.47;5071432;28;20520;-53
2022/07/31 09:54:24;;;;;;;15.20;6.47;;;;;;;25.03;48.15;99439.66;5070628;28;20144;-54
2022/07/31 09:56:50;;;;;;;19.13;6.68;;;;;;;25.05;48.15;99440.13;5070597;28;20028;-55
2022/07/31 09:59:16;;;;;;;15.52;6.70;;;;;;;25.36;47.34;99433.44;5071744;28;20040;-56
2022/07/31 10:01:42;;;;;;;15.27;7.10;;;;;;;25.36;46.37;99433.44;5071375;28;20035;-54
2022/07/31 10:04:08;;;;;;;20.55;10.02;;;;;;;25.49;46.17;99418.66;5071073;28;20480;-56
2022/07/31 10:06:33;;;;;;;13.77;6.93;;;;;;;25.18;47.18;99425.38;5055846;28;20078;-57
2022/07/31 10:08:59;;;;;;;10.40;6.32;;;;;;;25.27;47.17;99424.50;5074267;28;20107;-57
2022/07/31 10:11:24;;;;;;;17.88;7.15;;;;;;;24.77;46.89;99412.44;5046797;28;20037;-57
2022/07/31 10:13:50;;;;;;;15.18;7.75;;;;;;;24.91;47.58;99412.16;5054257;28;20032;-55
2022/07/31 10:16:15;;;;;;;11.52;6.15;;;;;;;25.50;46.16;99413.97;5054810;28;20034;-57
2022/07/31 10:18:44;;;;;;;14.32;6.53;;;;;;;24.94;47.05;99408.78;5070172;28;20454;-56
2022/07/31 10:21:11;;;;;;;10.50;6.07;;;;;;;25.10;45.91;99415.25;5076007;28;20064;-54
2022/07/31 10:23:40;;;;;;;17.42;6.65;;;;;;;25.38;45.84;99414.72;5088168;28;20032;-55
2022/07/31 10:26:06;;;;;;;12.63;6.80;;;;;;;25.86;44.18;99409.75;5072066;28;20028;-54
2022/07/31 10:28:32;;;;;;;14.80;6.57;;;;;;;26.24;43.70;99406.72;5075221;28;20025;-54
2022/07/31 10:30:57;;;;;;;15.38;6.25;;;;;;;27.01;42.34;99403.22;5078014;28;20408;-57
2022/07/31 10:33:23;;;;;;;15.25;6.65;;;;;;;27.66;41.23;99403.91;5074387;28;20056;-55
2022/07/31 10:36:02;;;;;;;15.20;6.47;;;;;;;27.49;40.06;99402.25;5075713;28;20520;-54
2022/07/31 10:38:50;;;;;;;21.20;6.65;;;;;;;27.19;41.47;99410.06;5075212;28;20056;-58
2022/07/31 10:41:35;;;;;;;12.43;6.70;;;;;;;25.94;43.04;99409.66;5084374;28;20070;-56
2022/07/31 10:44:08;;;;;;;13.07;6.07;;;;;;;26.37;41.71;99400.06;5075519;28;20032;-55
2022/07/31 10:46:34;;;;;;;9.07;5.70;;;;;;;27.19;40.63;99404.56;5074940;28;20021;-54
2022/07/31 10:48:59;;;;;;;14.38;5.90;;;;;;;27.37;41.22;99404.28;5072602;28;20062;-53
2022/07/31 10:51:25;;;;;;;12.60;6.10;;;;;;;28.28;39.11;99407.09;5073350;28;20463;-55
2022/07/31 10:54:00;;;;;;;12.45;5.82;;;;;;;28.68;38.44;99402.50;5073679;28;20431;-55
2022/07/31 10:56:26;;;;;;;12.25;6.03;;;;;;;28.37;38.86;99398.59;5072777;28;20059;-55
2022/07/31 10:58:58;;;;;;;19.10;5.97;;;;;;;27.96;39.26;99389.75;5071445;28;20020;-55
2022/07/31 11:01:26;;;;;;;18.70;5.82;;;;;;;28.17;40.07;99390.25;5073059;28;20103;-55
2022/07/31 11:03:53;;;;;;;14.20;6.40;;;;;;;28.10;39.39;99376.31;5072251;28;20124;-55
2022/07/31 11:06:20;;;;;;;16.17;5.85;;;;;;;27.45;40.68;99365.56;5072885;28;20084;-55
2022/07/31 11:08:53;;;;;;;13.73;6.20;;;;;;;27.22;41.47;99362.59;5073008;28;20029;-57
2022/07/31 11:11:30;;;;;;;10.43;5.63;;;;;;;27.38;39.39;99361.84;5078868;28;20037;-56
2022/07/31 11:13:56;;;;;;;12.55;4.78;;;;;;;28.33;39.18;99365.47;5073910;28;20056;-56
2022/07/31 11:16:22;;;;;;;14.85;5.55;;;;;;;29.17;37.57;99366.91;5075532;28;20025;-56
2022/07/31 11:19:19;;;;;;;12.57;5.15;;;;;;;28.36;38.15;99350.97;5074635;28;20028;-54
2022/07/31 11:21:45;;;;;;;23.63;6.15;;;;;;;29.19;37.49;99352.78;5061086;28;20040;-54
2022/07/31 11:24:18;;;;;;;17.02;5.30;;;;;;;29.42;36.01;99353.59;5074781;28;20021;-55
2022/07/31 11:26:48;;;;;;;10.35;4.75;;;;;;;28.73;37.25;99352.56;5075195;28;20048;-56
2022/07/31 11:29:13;;;;;;;11.43;5.05;;;;;;;28.76;36.87;99349.91;5074814;28;20028;-55
2022/07/31 11:31:38;;;;;;;9.93;5.28;;;;;;;27.48;38.87;99351.13;5073329;28;20039;-55
2022/07/31 11:34:04;;;;;;;14.13;5.57;;;;;;;27.79;38.32;99351.53;5074334;28;20013;-55